sensor_id;sensor_type;location;lat;lon;timestamp;P1;durP1;ratioP1;P2;durP2;ratioP2
13406;SDS011;6774;48.208;10.766;2023-02-01T00:00:43;3.77;;;3.47;;
13406;SDS011;6774;48.208;10.766;2023-02-01T00:03:11;4.57;;;4.17;;
13406;SDS011;6774;48.208;10.766;2023-02-01T00:05:40;4.73;;;4.33;;
13406;SDS011;6774;48.208;10.766;2023-02-01T00:08:08;5.47;;;3.63;;
13406;SDS011;6774;48.208;10.766;2023-02-01T00:10:37;3.70;;;3.40;;
13406;SDS011;6774;48.208;10.766;2023-02-01T00:13:05;4.63;;;4.23;;
13406;SDS011;6774;48.208;10.766;2023-02-01T00:15:33;4.10;;;3.73;;
13406;SDS011;6774;48.208;10.766;2023-02-01T00:18:01;5.00;;;4.23;;
13406;SDS011;6774;48.208;10.766;2023-02-01T00:20:28;4.13;;;3.87;;
13406;SDS011;6774;48.208;10.766;2023-02-01T00:22:56;4.00;;;3.33;;
13406;SDS011;6774;48.208;10.766;2023-02-01T00:25:24;4.90;;;4.50;;
13406;SDS011;6774;48.208;10.766;2023-02-01T00:27:53;3.87;;;3.53;;
13406;SDS011;6774;48.208;10.766;2023-02-01T00:30:23;10.90;;;5.63;;
13406;SDS011;6774;48.208;10.766;2023-02-01T00:32:50;5.10;;;4.60;;
13406;SDS011;6774;48.208;10.766;2023-02-01T00:35:18;5.40;;;5.00;;
13406;SDS011;6774;48.208;10.766;2023-02-01T00:37:46;5.57;;;5.03;;
13406;SDS011;6774;48.208;10.766;2023-02-01T00:40:14;5.00;;;4.57;;
13406;SDS011;6774;48.208;10.766;2023-02-01T00:42:42;6.57;;;5.97;;
13406;SDS011;6774;48.208;10.766;2023-02-01T00:45:11;5.70;;;5.30;;
13406;SDS011;6774;48.208;10.766;2023-02-01T00:47:39;5.17;;;4.77;;
13406;SDS011;6774;48.208;10.766;2023-02-01T00:50:07;5.37;;;4.87;;
13406;SDS011;6774;48.208;10.766;2023-02-01T00:52:35;5.50;;;5.00;;
13406;SDS011;6774;48.208;10.766;2023-02-01T00:55:03;6.27;;;5.77;;
13406;SDS011;6774;48.208;10.766;2023-02-01T00:57:31;5.07;;;3.93;;
13406;SDS011;6774;48.208;10.766;2023-02-01T00:59:59;5.30;;;4.17;;
13406;SDS011;6774;48.208;10.766;2023-02-01T01:02:31;5.77;;;5.27;;
13406;SDS011;6774;48.208;10.766;2023-02-01T01:04:59;5.07;;;4.57;;
13406;SDS011;6774;48.208;10.766;2023-02-01T01:07:27;6.07;;;4.80;;
13406;SDS011;6774;48.208;10.766;2023-02-01T01:09:55;4.67;;;4.37;;
13406;SDS011;6774;48.208;10.766;2023-02-01T01:12:23;6.07;;;5.57;;
13406;SDS011;6774;48.208;10.766;2023-02-01T01:14:51;5.93;;;4.93;;
13406;SDS011;6774;48.208;10.766;2023-02-01T01:17:19;8.27;;;5.97;;
13406;SDS011;6774;48.208;10.766;2023-02-01T01:19:48;5.73;;;4.80;;
13406;SDS011;6774;48.208;10.766;2023-02-01T01:22:15;6.20;;;4.40;;
13406;SDS011;6774;48.208;10.766;2023-02-01T01:24:44;4.93;;;4.50;;
13406;SDS011;6774;48.208;10.766;2023-02-01T01:27:12;4.83;;;4.53;;
13406;SDS011;6774;48.208;10.766;2023-02-01T01:29:40;4.63;;;4.20;;
13406;SDS011;6774;48.208;10.766;2023-02-01T01:32:08;4.50;;;4.00;;
13406;SDS011;6774;48.208;10.766;2023-02-01T01:34:36;5.93;;;5.43;;
13406;SDS011;6774;48.208;10.766;2023-02-01T01:37:06;5.20;;;4.70;;
13406;SDS011;6774;48.208;10.766;2023-02-01T01:39:34;5.73;;;4.60;;
13406;SDS011;6774;48.208;10.766;2023-02-01T01:42:02;5.07;;;4.67;;
13406;SDS011;6774;48.208;10.766;2023-02-01T01:47:32;4.40;;;4.03;;
13406;SDS011;6774;48.208;10.766;2023-02-01T01:50:05;4.90;;;4.47;;
13406;SDS011;6774;48.208;10.766;2023-02-01T01:52:37;5.43;;;5.00;;
13406;SDS011;6774;48.208;10.766;2023-02-01T01:55:08;3.70;;;3.50;;
13406;SDS011;6774;48.208;10.766;2023-02-01T01:57:37;5.80;;;4.50;;
13406;SDS011;6774;48.208;10.766;2023-02-01T02:00:08;6.20;;;4.63;;
13406;SDS011;6774;48.208;10.766;2023-02-01T02:02:42;4.83;;;4.40;;
13406;SDS011;6774;48.208;10.766;2023-02-01T02:05:13;4.50;;;3.80;;
13406;SDS011;6774;48.208;10.766;2023-02-01T02:07:45;5.17;;;4.67;;
13406;SDS011;6774;48.208;10.766;2023-02-01T02:10:15;4.37;;;4.07;;
13406;SDS011;6774;48.208;10.766;2023-02-01T02:12:44;5.70;;;4.43;;
13406;SDS011;6774;48.208;10.766;2023-02-01T02:15:15;6.30;;;4.30;;
13406;SDS011;6774;48.208;10.766;2023-02-01T02:17:44;4.00;;;3.70;;
13406;SDS011;6774;48.208;10.766;2023-02-01T02:23:36;3.60;;;3.30;;
13406;SDS011;6774;48.208;10.766;2023-02-01T02:26:32;3.30;;;3.10;;
13406;SDS011;6774;48.208;10.766;2023-02-01T02:29:30;5.07;;;4.57;;
13406;SDS011;6774;48.208;10.766;2023-02-01T02:32:27;4.30;;;4.00;;
13406;SDS011;6774;48.208;10.766;2023-02-01T02:35:21;3.60;;;3.30;;
13406;SDS011;6774;48.208;10.766;2023-02-01T02:38:00;3.57;;;3.33;;
13406;SDS011;6774;48.208;10.766;2023-02-01T02:40:36;4.33;;;3.93;;
13406;SDS011;6774;48.208;10.766;2023-02-01T02:43:16;4.10;;;3.50;;
13406;SDS011;6774;48.208;10.766;2023-02-01T02:46:08;3.73;;;3.43;;
13406;SDS011;6774;48.208;10.766;2023-02-01T02:49:02;4.50;;;4.20;;
13406;SDS011;6774;48.208;10.766;2023-02-01T02:51:37;2.93;;;2.73;;
13406;SDS011;6774;48.208;10.766;2023-02-01T02:54:25;2.83;;;2.63;;
13406;SDS011;6774;48.208;10.766;2023-02-01T02:57:18;2.90;;;2.70;;
13406;SDS011;6774;48.208;10.766;2023-02-01T03:00:07;3.70;;;3.50;;
13406;SDS011;6774;48.208;10.766;2023-02-01T03:02:55;4.90;;;3.87;;
13406;SDS011;6774;48.208;10.766;2023-02-01T03:05:41;2.67;;;2.47;;
13406;SDS011;6774;48.208;10.766;2023-02-01T03:08:14;4.37;;;3.97;;
13406;SDS011;6774;48.208;10.766;2023-02-01T03:10:47;3.93;;;3.33;;
13406;SDS011;6774;48.208;10.766;2023-02-01T03:13:20;2.80;;;2.60;;
13406;SDS011;6774;48.208;10.766;2023-02-01T03:15:54;4.30;;;3.27;;
13406;SDS011;6774;48.208;10.766;2023-02-01T03:18:30;6.00;;;4.07;;
13406;SDS011;6774;48.208;10.766;2023-02-01T03:21:04;2.57;;;2.47;;
13406;SDS011;6774;48.208;10.766;2023-02-01T03:23:36;3.87;;;3.57;;
13406;SDS011;6774;48.208;10.766;2023-02-01T03:26:06;3.13;;;2.83;;
13406;SDS011;6774;48.208;10.766;2023-02-01T03:28:38;3.73;;;3.33;;
13406;SDS011;6774;48.208;10.766;2023-02-01T03:31:12;5.27;;;3.33;;
13406;SDS011;6774;48.208;10.766;2023-02-01T03:33:40;3.53;;;3.23;;
13406;SDS011;6774;48.208;10.766;2023-02-01T03:36:13;3.27;;;2.97;;
13406;SDS011;6774;48.208;10.766;2023-02-01T03:38:48;4.20;;;3.83;;
13406;SDS011;6774;48.208;10.766;2023-02-01T03:41:23;5.20;;;4.73;;
13406;SDS011;6774;48.208;10.766;2023-02-01T03:43:56;6.50;;;4.57;;
13406;SDS011;6774;48.208;10.766;2023-02-01T03:46:30;4.80;;;4.50;;
13406;SDS011;6774;48.208;10.766;2023-02-01T03:49:02;4.33;;;4.03;;
13406;SDS011;6774;48.208;10.766;2023-02-01T03:51:35;4.00;;;3.70;;
13406;SDS011;6774;48.208;10.766;2023-02-01T03:54:09;3.40;;;3.20;;
13406;SDS011;6774;48.208;10.766;2023-02-01T03:56:41;3.37;;;3.10;;
13406;SDS011;6774;48.208;10.766;2023-02-01T03:59:12;2.60;;;2.40;;
13406;SDS011;6774;48.208;10.766;2023-02-01T04:01:41;3.30;;;3.10;;
13406;SDS011;6774;48.208;10.766;2023-02-01T04:04:09;4.43;;;4.03;;
13406;SDS011;6774;48.208;10.766;2023-02-01T04:06:49;5.07;;;4.63;;
13406;SDS011;6774;48.208;10.766;2023-02-01T04:09:21;5.70;;;2.90;;
13406;SDS011;6774;48.208;10.766;2023-02-01T04:11:48;3.87;;;3.37;;
13406;SDS011;6774;48.208;10.766;2023-02-01T04:14:16;4.17;;;3.90;;
13406;SDS011;6774;48.208;10.766;2023-02-01T04:16:44;3.43;;;3.13;;
13406;SDS011;6774;48.208;10.766;2023-02-01T04:19:12;3.67;;;3.37;;
13406;SDS011;6774;48.208;10.766;2023-02-01T04:21:41;2.23;;;2.13;;
13406;SDS011;6774;48.208;10.766;2023-02-01T04:24:08;4.80;;;3.30;;
13406;SDS011;6774;48.208;10.766;2023-02-01T04:26:38;3.53;;;3.07;;
13406;SDS011;6774;48.208;10.766;2023-02-01T04:29:07;4.73;;;4.33;;
13406;SDS011;6774;48.208;10.766;2023-02-01T04:31:36;2.57;;;2.37;;
13406;SDS011;6774;48.208;10.766;2023-02-01T04:34:04;4.27;;;3.97;;
13406;SDS011;6774;48.208;10.766;2023-02-01T04:36:32;3.80;;;3.17;;
13406;SDS011;6774;48.208;10.766;2023-02-01T04:39:00;3.30;;;3.03;;
13406;SDS011;6774;48.208;10.766;2023-02-01T04:41:28;3.27;;;3.07;;
13406;SDS011;6774;48.208;10.766;2023-02-01T04:43:57;4.97;;;4.60;;
13406;SDS011;6774;48.208;10.766;2023-02-01T04:46:25;4.40;;;4.00;;
13406;SDS011;6774;48.208;10.766;2023-02-01T04:48:54;5.93;;;3.87;;
13406;SDS011;6774;48.208;10.766;2023-02-01T04:51:22;3.73;;;3.43;;
13406;SDS011;6774;48.208;10.766;2023-02-01T04:53:50;6.10;;;4.47;;
13406;SDS011;6774;48.208;10.766;2023-02-01T04:56:18;3.93;;;3.57;;
13406;SDS011;6774;48.208;10.766;2023-02-01T04:58:45;3.53;;;3.30;;
13406;SDS011;6774;48.208;10.766;2023-02-01T05:01:15;2.67;;;2.47;;
13406;SDS011;6774;48.208;10.766;2023-02-01T05:03:43;3.50;;;3.20;;
13406;SDS011;6774;48.208;10.766;2023-02-01T05:06:11;3.60;;;3.40;;
13406;SDS011;6774;48.208;10.766;2023-02-01T05:08:38;2.47;;;2.23;;
13406;SDS011;6774;48.208;10.766;2023-02-01T05:11:06;4.37;;;3.97;;
13406;SDS011;6774;48.208;10.766;2023-02-01T05:13:54;3.20;;;3.00;;
13406;SDS011;6774;48.208;10.766;2023-02-01T05:16:23;4.47;;;4.07;;
13406;SDS011;6774;48.208;10.766;2023-02-01T05:18:50;3.50;;;3.30;;
13406;SDS011;6774;48.208;10.766;2023-02-01T05:21:18;4.37;;;3.93;;
13406;SDS011;6774;48.208;10.766;2023-02-01T05:23:46;3.70;;;2.83;;
13406;SDS011;6774;48.208;10.766;2023-02-01T05:26:32;4.00;;;3.47;;
13406;SDS011;6774;48.208;10.766;2023-02-01T05:29:00;4.70;;;4.23;;
13406;SDS011;6774;48.208;10.766;2023-02-01T05:31:30;3.53;;;3.33;;
13406;SDS011;6774;48.208;10.766;2023-02-01T05:33:58;3.20;;;2.57;;
13406;SDS011;6774;48.208;10.766;2023-02-01T05:36:26;3.63;;;3.43;;
13406;SDS011;6774;48.208;10.766;2023-02-01T05:38:54;4.20;;;3.80;;
13406;SDS011;6774;48.208;10.766;2023-02-01T05:41:22;4.70;;;4.37;;
13406;SDS011;6774;48.208;10.766;2023-02-01T05:43:50;5.40;;;4.40;;
13406;SDS011;6774;48.208;10.766;2023-02-01T05:46:19;4.30;;;3.40;;
13406;SDS011;6774;48.208;10.766;2023-02-01T05:48:48;4.03;;;3.63;;
13406;SDS011;6774;48.208;10.766;2023-02-01T05:51:16;4.17;;;3.77;;
13406;SDS011;6774;48.208;10.766;2023-02-01T05:53:43;5.20;;;3.80;;
13406;SDS011;6774;48.208;10.766;2023-02-01T05:56:11;4.80;;;4.37;;
13406;SDS011;6774;48.208;10.766;2023-02-01T05:58:39;6.03;;;5.53;;
13406;SDS011;6774;48.208;10.766;2023-02-01T06:01:07;3.83;;;3.47;;
13406;SDS011;6774;48.208;10.766;2023-02-01T06:03:35;3.87;;;3.63;;
13406;SDS011;6774;48.208;10.766;2023-02-01T06:06:05;2.90;;;2.70;;
13406;SDS011;6774;48.208;10.766;2023-02-01T06:08:33;4.67;;;4.27;;
13406;SDS011;6774;48.208;10.766;2023-02-01T06:11:01;4.63;;;4.30;;
13406;SDS011;6774;48.208;10.766;2023-02-01T06:13:31;4.97;;;3.27;;
13406;SDS011;6774;48.208;10.766;2023-02-01T06:16:00;5.60;;;4.57;;
13406;SDS011;6774;48.208;10.766;2023-02-01T06:18:29;3.13;;;2.83;;
13406;SDS011;6774;48.208;10.766;2023-02-01T06:20:58;3.57;;;3.10;;
13406;SDS011;6774;48.208;10.766;2023-02-01T06:23:28;5.00;;;3.87;;
13406;SDS011;6774;48.208;10.766;2023-02-01T06:26:00;4.30;;;4.00;;
13406;SDS011;6774;48.208;10.766;2023-02-01T06:28:30;3.77;;;3.57;;
13406;SDS011;6774;48.208;10.766;2023-02-01T06:31:02;5.07;;;4.67;;
13406;SDS011;6774;48.208;10.766;2023-02-01T06:33:34;4.27;;;3.93;;
13406;SDS011;6774;48.208;10.766;2023-02-01T06:36:02;4.60;;;4.30;;
13406;SDS011;6774;48.208;10.766;2023-02-01T06:38:34;6.23;;;4.97;;
13406;SDS011;6774;48.208;10.766;2023-02-01T06:41:03;4.47;;;4.17;;
13406;SDS011;6774;48.208;10.766;2023-02-01T06:43:31;3.70;;;3.40;;
13406;SDS011;6774;48.208;10.766;2023-02-01T06:46:00;4.27;;;3.97;;
13406;SDS011;6774;48.208;10.766;2023-02-01T06:48:29;4.03;;;3.67;;
13406;SDS011;6774;48.208;10.766;2023-02-01T06:50:57;3.40;;;3.10;;
13406;SDS011;6774;48.208;10.766;2023-02-01T06:53:25;4.20;;;3.90;;
13406;SDS011;6774;48.208;10.766;2023-02-01T06:55:55;4.40;;;4.03;;
13406;SDS011;6774;48.208;10.766;2023-02-01T06:58:24;3.40;;;3.20;;
13406;SDS011;6774;48.208;10.766;2023-02-01T07:00:55;3.20;;;3.00;;
13406;SDS011;6774;48.208;10.766;2023-02-01T07:03:22;3.50;;;3.20;;
13406;SDS011;6774;48.208;10.766;2023-02-01T07:05:53;3.40;;;3.10;;
13406;SDS011;6774;48.208;10.766;2023-02-01T07:08:23;3.80;;;2.77;;
13406;SDS011;6774;48.208;10.766;2023-02-01T07:10:50;3.63;;;3.33;;
13406;SDS011;6774;48.208;10.766;2023-02-01T07:13:19;3.70;;;3.03;;
13406;SDS011;6774;48.208;10.766;2023-02-01T07:15:47;3.20;;;3.00;;
13406;SDS011;6774;48.208;10.766;2023-02-01T07:18:14;2.97;;;2.77;;
13406;SDS011;6774;48.208;10.766;2023-02-01T07:20:43;3.13;;;2.93;;
13406;SDS011;6774;48.208;10.766;2023-02-01T07:23:16;2.70;;;2.50;;
13406;SDS011;6774;48.208;10.766;2023-02-01T07:25:45;2.13;;;1.93;;
13406;SDS011;6774;48.208;10.766;2023-02-01T07:28:13;3.80;;;3.50;;
13406;SDS011;6774;48.208;10.766;2023-02-01T07:30:42;3.13;;;2.93;;
13406;SDS011;6774;48.208;10.766;2023-02-01T07:33:10;3.27;;;3.00;;
13406;SDS011;6774;48.208;10.766;2023-02-01T07:35:38;2.70;;;2.50;;
13406;SDS011;6774;48.208;10.766;2023-02-01T07:38:05;2.47;;;2.27;;
13406;SDS011;6774;48.208;10.766;2023-02-01T07:40:33;2.83;;;2.63;;
13406;SDS011;6774;48.208;10.766;2023-02-01T07:43:01;3.13;;;2.47;;
13406;SDS011;6774;48.208;10.766;2023-02-01T07:45:32;2.97;;;2.77;;
13406;SDS011;6774;48.208;10.766;2023-02-01T07:48:03;2.13;;;1.83;;
13406;SDS011;6774;48.208;10.766;2023-02-01T07:50:31;2.23;;;2.13;;
13406;SDS011;6774;48.208;10.766;2023-02-01T07:52:59;3.60;;;3.40;;
13406;SDS011;6774;48.208;10.766;2023-02-01T07:55:28;3.73;;;3.43;;
13406;SDS011;6774;48.208;10.766;2023-02-01T07:57:56;2.37;;;2.23;;
13406;SDS011;6774;48.208;10.766;2023-02-01T08:00:25;3.37;;;3.13;;
13406;SDS011;6774;48.208;10.766;2023-02-01T08:03:13;2.10;;;2.00;;
13406;SDS011;6774;48.208;10.766;2023-02-01T08:05:42;2.63;;;2.50;;
13406;SDS011;6774;48.208;10.766;2023-02-01T08:08:10;2.53;;;2.33;;
13406;SDS011;6774;48.208;10.766;2023-02-01T08:10:38;3.03;;;2.83;;
13406;SDS011;6774;48.208;10.766;2023-02-01T08:13:06;3.23;;;1.93;;
13406;SDS011;6774;48.208;10.766;2023-02-01T08:15:34;3.70;;;3.33;;
13406;SDS011;6774;48.208;10.766;2023-02-01T08:18:04;2.63;;;2.03;;
13406;SDS011;6774;48.208;10.766;2023-02-01T08:20:33;2.33;;;2.23;;
13406;SDS011;6774;48.208;10.766;2023-02-01T08:23:02;2.80;;;2.60;;
13406;SDS011;6774;48.208;10.766;2023-02-01T08:25:30;2.23;;;2.13;;
13406;SDS011;6774;48.208;10.766;2023-02-01T08:27:58;2.57;;;2.10;;
13406;SDS011;6774;48.208;10.766;2023-02-01T08:30:26;1.67;;;1.57;;
13406;SDS011;6774;48.208;10.766;2023-02-01T08:32:54;2.43;;;2.23;;
13406;SDS011;6774;48.208;10.766;2023-02-01T08:35:22;2.57;;;2.37;;
13406;SDS011;6774;48.208;10.766;2023-02-01T08:38:09;1.93;;;1.83;;
13406;SDS011;6774;48.208;10.766;2023-02-01T08:40:37;2.13;;;2.03;;
13406;SDS011;6774;48.208;10.766;2023-02-01T08:43:05;3.97;;;2.60;;
13406;SDS011;6774;48.208;10.766;2023-02-01T08:45:32;2.17;;;1.97;;
13406;SDS011;6774;48.208;10.766;2023-02-01T08:48:01;2.20;;;2.10;;
13406;SDS011;6774;48.208;10.766;2023-02-01T08:50:29;2.10;;;2.00;;
13406;SDS011;6774;48.208;10.766;2023-02-01T08:52:56;2.33;;;2.13;;
13406;SDS011;6774;48.208;10.766;2023-02-01T08:55:25;2.20;;;2.03;;
13406;SDS011;6774;48.208;10.766;2023-02-01T08:57:54;2.27;;;2.07;;
13406;SDS011;6774;48.208;10.766;2023-02-01T09:00:22;3.43;;;2.67;;
13406;SDS011;6774;48.208;10.766;2023-02-01T09:02:50;3.70;;;3.17;;
13406;SDS011;6774;48.208;10.766;2023-02-01T09:05:18;1.77;;;1.67;;
13406;SDS011;6774;48.208;10.766;2023-02-01T09:07:48;1.93;;;1.83;;
13406;SDS011;6774;48.208;10.766;2023-02-01T09:10:16;1.90;;;1.80;;
13406;SDS011;6774;48.208;10.766;2023-02-01T09:13:01;1.77;;;1.67;;
13406;SDS011;6774;48.208;10.766;2023-02-01T09:15:29;2.80;;;2.10;;
13406;SDS011;6774;48.208;10.766;2023-02-01T09:17:57;1.87;;;1.73;;
13406;SDS011;6774;48.208;10.766;2023-02-01T09:20:25;2.37;;;1.97;;
13406;SDS011;6774;48.208;10.766;2023-02-01T09:22:54;2.93;;;2.67;;
13406;SDS011;6774;48.208;10.766;2023-02-01T09:25:22;2.43;;;2.30;;
13406;SDS011;6774;48.208;10.766;2023-02-01T09:27:50;2.20;;;2.10;;
13406;SDS011;6774;48.208;10.766;2023-02-01T09:30:19;2.43;;;2.23;;
13406;SDS011;6774;48.208;10.766;2023-02-01T09:32:48;1.87;;;1.77;;
13406;SDS011;6774;48.208;10.766;2023-02-01T09:35:15;1.43;;;1.33;;
13406;SDS011;6774;48.208;10.766;2023-02-01T09:37:43;1.80;;;1.43;;
13406;SDS011;6774;48.208;10.766;2023-02-01T09:40:13;1.23;;;1.13;;
13406;SDS011;6774;48.208;10.766;2023-02-01T09:42:52;1.87;;;1.77;;
13406;SDS011;6774;48.208;10.766;2023-02-01T09:45:35;3.70;;;3.00;;
13406;SDS011;6774;48.208;10.766;2023-02-01T09:48:12;1.87;;;1.77;;
13406;SDS011;6774;48.208;10.766;2023-02-01T09:50:44;2.27;;;2.07;;
13406;SDS011;6774;48.208;10.766;2023-02-01T09:53:17;1.73;;;1.63;;
13406;SDS011;6774;48.208;10.766;2023-02-01T09:55:51;2.70;;;2.50;;
13406;SDS011;6774;48.208;10.766;2023-02-01T09:58:23;2.07;;;1.97;;
13406;SDS011;6774;48.208;10.766;2023-02-01T10:00:57;2.87;;;2.03;;
13406;SDS011;6774;48.208;10.766;2023-02-01T10:03:27;1.40;;;1.30;;
13406;SDS011;6774;48.208;10.766;2023-02-01T10:06:01;3.10;;;2.90;;
13406;SDS011;6774;48.208;10.766;2023-02-01T10:08:41;2.07;;;1.83;;
13406;SDS011;6774;48.208;10.766;2023-02-01T10:11:27;1.70;;;1.60;;
13406;SDS011;6774;48.208;10.766;2023-02-01T10:14:18;2.57;;;2.37;;
13406;SDS011;6774;48.208;10.766;2023-02-01T10:17:07;2.70;;;2.43;;
13406;SDS011;6774;48.208;10.766;2023-02-01T10:19:46;2.50;;;2.40;;
13406;SDS011;6774;48.208;10.766;2023-02-01T10:22:28;1.67;;;1.37;;
13406;SDS011;6774;48.208;10.766;2023-02-01T10:25:26;1.97;;;1.87;;
13406;SDS011;6774;48.208;10.766;2023-02-01T10:27:55;2.80;;;2.60;;
13406;SDS011;6774;48.208;10.766;2023-02-01T10:30:28;1.70;;;1.57;;
13406;SDS011;6774;48.208;10.766;2023-02-01T10:33:14;2.10;;;2.00;;
13406;SDS011;6774;48.208;10.766;2023-02-01T10:35:44;2.00;;;1.90;;
13406;SDS011;6774;48.208;10.766;2023-02-01T10:38:16;4.60;;;3.40;;
13406;SDS011;6774;48.208;10.766;2023-02-01T10:40:51;2.23;;;2.00;;
13406;SDS011;6774;48.208;10.766;2023-02-01T10:43:20;3.77;;;3.30;;
13406;SDS011;6774;48.208;10.766;2023-02-01T10:45:48;4.90;;;2.50;;
13406;SDS011;6774;48.208;10.766;2023-02-01T10:48:18;2.43;;;2.27;;
13406;SDS011;6774;48.208;10.766;2023-02-01T10:50:47;2.50;;;2.20;;
13406;SDS011;6774;48.208;10.766;2023-02-01T10:53:20;2.10;;;2.00;;
13406;SDS011;6774;48.208;10.766;2023-02-01T10:55:51;2.47;;;2.27;;
13406;SDS011;6774;48.208;10.766;2023-02-01T10:58:21;3.17;;;2.97;;
13406;SDS011;6774;48.208;10.766;2023-02-01T11:00:56;2.77;;;2.67;;
13406;SDS011;6774;48.208;10.766;2023-02-01T11:03:30;3.43;;;3.13;;
13406;SDS011;6774;48.208;10.766;2023-02-01T11:06:01;3.67;;;3.47;;
13406;SDS011;6774;48.208;10.766;2023-02-01T11:08:41;2.93;;;2.70;;
13406;SDS011;6774;48.208;10.766;2023-02-01T11:11:11;5.17;;;4.27;;
13406;SDS011;6774;48.208;10.766;2023-02-01T11:13:39;3.27;;;2.37;;
13406;SDS011;6774;48.208;10.766;2023-02-01T11:16:10;15.67;;;5.00;;
13406;SDS011;6774;48.208;10.766;2023-02-01T11:18:41;4.40;;;3.13;;
13406;SDS011;6774;48.208;10.766;2023-02-01T11:21:10;4.03;;;3.73;;
13406;SDS011;6774;48.208;10.766;2023-02-01T11:23:39;2.77;;;2.30;;
13406;SDS011;6774;48.208;10.766;2023-02-01T11:26:11;4.07;;;3.77;;
13406;SDS011;6774;48.208;10.766;2023-02-01T11:28:50;3.33;;;3.07;;
13406;SDS011;6774;48.208;10.766;2023-02-01T11:31:21;5.23;;;2.70;;
13406;SDS011;6774;48.208;10.766;2023-02-01T11:33:53;3.97;;;3.77;;
13406;SDS011;6774;48.208;10.766;2023-02-01T11:36:26;3.20;;;2.97;;
13406;SDS011;6774;48.208;10.766;2023-02-01T11:39:07;3.83;;;2.77;;
13406;SDS011;6774;48.208;10.766;2023-02-01T11:41:40;2.87;;;2.67;;
13406;SDS011;6774;48.208;10.766;2023-02-01T11:44:18;3.43;;;3.13;;
13406;SDS011;6774;48.208;10.766;2023-02-01T11:46:48;3.47;;;3.17;;
13406;SDS011;6774;48.208;10.766;2023-02-01T11:49:22;3.40;;;2.57;;
13406;SDS011;6774;48.208;10.766;2023-02-01T11:52:04;5.77;;;2.93;;
13406;SDS011;6774;48.208;10.766;2023-02-01T11:54:41;3.17;;;2.97;;
13406;SDS011;6774;48.208;10.766;2023-02-01T11:57:24;3.23;;;2.93;;
13406;SDS011;6774;48.208;10.766;2023-02-01T12:03:03;3.40;;;3.07;;
13406;SDS011;6774;48.208;10.766;2023-02-01T12:05:50;3.03;;;2.83;;
13406;SDS011;6774;48.208;10.766;2023-02-01T12:08:29;4.47;;;2.70;;
13406;SDS011;6774;48.208;10.766;2023-02-01T12:11:17;1.83;;;1.47;;
13406;SDS011;6774;48.208;10.766;2023-02-01T12:13:55;2.83;;;2.60;;
13406;SDS011;6774;48.208;10.766;2023-02-01T12:16:32;2.90;;;2.70;;
13406;SDS011;6774;48.208;10.766;2023-02-01T12:22:25;2.23;;;2.03;;
13406;SDS011;6774;48.208;10.766;2023-02-01T12:31:06;2.70;;;2.27;;
13406;SDS011;6774;48.208;10.766;2023-02-01T12:33:48;5.10;;;3.13;;
13406;SDS011;6774;48.208;10.766;2023-02-01T12:36:26;3.43;;;3.23;;
13406;SDS011;6774;48.208;10.766;2023-02-01T12:39:08;4.40;;;2.30;;
13406;SDS011;6774;48.208;10.766;2023-02-01T12:41:49;3.07;;;2.87;;
13406;SDS011;6774;48.208;10.766;2023-02-01T12:44:26;2.60;;;2.40;;
13406;SDS011;6774;48.208;10.766;2023-02-01T12:46:59;3.47;;;3.17;;
13406;SDS011;6774;48.208;10.766;2023-02-01T12:49:34;4.50;;;4.07;;
13406;SDS011;6774;48.208;10.766;2023-02-01T12:52:17;2.60;;;2.40;;
13406;SDS011;6774;48.208;10.766;2023-02-01T12:54:53;3.27;;;2.50;;
13406;SDS011;6774;48.208;10.766;2023-02-01T12:57:26;3.33;;;3.13;;
13406;SDS011;6774;48.208;10.766;2023-02-01T13:00:02;1.70;;;1.60;;
13406;SDS011;6774;48.208;10.766;2023-02-01T13:02:40;3.33;;;2.67;;
13406;SDS011;6774;48.208;10.766;2023-02-01T13:05:13;2.90;;;2.40;;
13406;SDS011;6774;48.208;10.766;2023-02-01T13:07:45;2.30;;;2.00;;
13406;SDS011;6774;48.208;10.766;2023-02-01T13:10:21;3.03;;;2.83;;
13406;SDS011;6774;48.208;10.766;2023-02-01T13:12:57;1.93;;;1.83;;
13406;SDS011;6774;48.208;10.766;2023-02-01T13:15:38;2.10;;;2.00;;
13406;SDS011;6774;48.208;10.766;2023-02-01T13:18:09;3.57;;;2.90;;
13406;SDS011;6774;48.208;10.766;2023-02-01T13:20:44;1.97;;;1.87;;
13406;SDS011;6774;48.208;10.766;2023-02-01T13:23:19;3.00;;;2.70;;
13406;SDS011;6774;48.208;10.766;2023-02-01T13:25:54;4.30;;;1.47;;
13406;SDS011;6774;48.208;10.766;2023-02-01T13:28:24;2.47;;;2.27;;
13406;SDS011;6774;48.208;10.766;2023-02-01T13:31:02;2.90;;;2.40;;
13406;SDS011;6774;48.208;10.766;2023-02-01T13:33:49;2.07;;;1.97;;
13406;SDS011;6774;48.208;10.766;2023-02-01T13:36:33;3.80;;;2.80;;
13406;SDS011;6774;48.208;10.766;2023-02-01T13:39:18;2.33;;;2.13;;
13406;SDS011;6774;48.208;10.766;2023-02-01T13:41:57;2.03;;;1.83;;
13406;SDS011;6774;48.208;10.766;2023-02-01T13:44:28;3.00;;;2.80;;
13406;SDS011;6774;48.208;10.766;2023-02-01T13:47:01;3.03;;;2.83;;
13406;SDS011;6774;48.208;10.766;2023-02-01T13:49:37;2.63;;;2.43;;
13406;SDS011;6774;48.208;10.766;2023-02-01T13:52:17;2.67;;;2.37;;
13406;SDS011;6774;48.208;10.766;2023-02-01T13:55:00;5.70;;;2.33;;
13406;SDS011;6774;48.208;10.766;2023-02-01T13:57:35;2.57;;;2.37;;
13406;SDS011;6774;48.208;10.766;2023-02-01T14:00:06;2.70;;;2.23;;
13406;SDS011;6774;48.208;10.766;2023-02-01T14:02:47;2.57;;;2.37;;
13406;SDS011;6774;48.208;10.766;2023-02-01T14:08:35;2.60;;;1.70;;
13406;SDS011;6774;48.208;10.766;2023-02-01T14:11:06;2.13;;;1.20;;
13406;SDS011;6774;48.208;10.766;2023-02-01T14:13:35;2.07;;;1.87;;
13406;SDS011;6774;48.208;10.766;2023-02-01T14:16:11;3.53;;;2.07;;
13406;SDS011;6774;48.208;10.766;2023-02-01T14:18:57;1.73;;;1.63;;
13406;SDS011;6774;48.208;10.766;2023-02-01T14:21:28;1.80;;;1.70;;
13406;SDS011;6774;48.208;10.766;2023-02-01T14:23:59;4.53;;;2.87;;
13406;SDS011;6774;48.208;10.766;2023-02-01T14:26:41;1.77;;;1.33;;
13406;SDS011;6774;48.208;10.766;2023-02-01T14:29:27;9.23;;;1.70;;
13406;SDS011;6774;48.208;10.766;2023-02-01T14:32:00;3.97;;;2.50;;
13406;SDS011;6774;48.208;10.766;2023-02-01T14:34:36;1.70;;;1.47;;
13406;SDS011;6774;48.208;10.766;2023-02-01T14:37:10;2.27;;;1.73;;
13406;SDS011;6774;48.208;10.766;2023-02-01T14:39:52;1.30;;;1.20;;
13406;SDS011;6774;48.208;10.766;2023-02-01T14:42:25;1.23;;;1.10;;
13406;SDS011;6774;48.208;10.766;2023-02-01T14:51:08;4.07;;;1.63;;
13406;SDS011;6774;48.208;10.766;2023-02-01T14:53:40;3.20;;;2.10;;
13406;SDS011;6774;48.208;10.766;2023-02-01T14:56:11;1.60;;;1.50;;
13406;SDS011;6774;48.208;10.766;2023-02-01T14:58:44;1.70;;;1.60;;
13406;SDS011;6774;48.208;10.766;2023-02-01T15:01:22;1.70;;;1.60;;
13406;SDS011;6774;48.208;10.766;2023-02-01T15:03:55;2.17;;;2.03;;
13406;SDS011;6774;48.208;10.766;2023-02-01T15:06:27;0.87;;;0.80;;
13406;SDS011;6774;48.208;10.766;2023-02-01T15:09:00;3.23;;;1.37;;
13406;SDS011;6774;48.208;10.766;2023-02-01T15:11:30;0.87;;;0.83;;
13406;SDS011;6774;48.208;10.766;2023-02-01T15:13:58;1.43;;;0.80;;
13406;SDS011;6774;48.208;10.766;2023-02-01T15:16:28;1.23;;;1.13;;
13406;SDS011;6774;48.208;10.766;2023-02-01T15:19:09;1.63;;;1.53;;
13406;SDS011;6774;48.208;10.766;2023-02-01T15:21:42;4.10;;;1.30;;
13406;SDS011;6774;48.208;10.766;2023-02-01T15:24:17;6.23;;;1.63;;
13406;SDS011;6774;48.208;10.766;2023-02-01T15:26:48;1.73;;;1.63;;
13406;SDS011;6774;48.208;10.766;2023-02-01T15:29:16;3.87;;;1.70;;
13406;SDS011;6774;48.208;10.766;2023-02-01T15:31:48;1.27;;;1.17;;
13406;SDS011;6774;48.208;10.766;2023-02-01T15:34:17;3.23;;;1.40;;
13406;SDS011;6774;48.208;10.766;2023-02-01T15:36:45;0.77;;;0.73;;
13406;SDS011;6774;48.208;10.766;2023-02-01T15:39:29;2.57;;;2.47;;
13406;SDS011;6774;48.208;10.766;2023-02-01T15:41:59;0.97;;;0.93;;
13406;SDS011;6774;48.208;10.766;2023-02-01T15:44:33;2.30;;;0.93;;
13406;SDS011;6774;48.208;10.766;2023-02-01T15:47:12;2.97;;;2.27;;